Time;durP1;ratioP1;P1;durP2;ratioP2;P2;SDS_P1;SDS_P2;PMS_P1;PMS_P2;Temp;Humidity;BMP_temperature;BMP_pressure;BME280_temperature;BME280_humidity;BME280_pressure;Samples;Min_cycle;Max_cycle;Signal;HPM_P1;HPM_P2
2022/05/19 00:03:24;;;;;;;2.97;1.90;;;18.00;98.00;;;;;;5054580;28;20531;-66
2022/05/19 00:05:52;;;;;;;1.80;1.70;;;17.90;98.00;;;;;;5055483;28;20481;-66
2022/05/19 00:08:19;;;;;;;1.80;1.57;;;17.80;98.00;;;;;;5055378;28;20461;-66
2022/05/19 00:10:46;;;;;;;2.13;1.50;;;17.80;98.00;;;;;;5055271;28;20454;-66
2022/05/19 00:13:13;;;;;;;2.10;1.60;;;17.80;98.00;;;;;;5055049;28;20485;-66
2022/05/19 00:15:42;;;;;;;1.70;1.33;;;17.80;98.00;;;;;;5055277;28;20461;-66
2022/05/19 00:18:09;;;;;;;1.73;1.57;;;17.70;98.00;;;;;;5055204;28;20446;-66
2022/05/19 00:20:36;;;;;;;2.13;1.50;;;17.70;98.00;;;;;;5055273;28;20446;-66
2022/05/19 00:23:03;;;;;;;2.37;1.50;;;17.70;98.00;;;;;;5051520;28;20821;-66
2022/05/19 00:25:31;;;;;;;2.10;1.80;;;17.50;98.00;;;;;;5055051;28;20453;-66
2022/05/19 00:27:58;;;;;;;2.00;1.57;;;17.30;98.00;;;;;;5054874;28;20461;-66
2022/05/19 00:30:25;;;;;;;1.53;1.50;;;17.30;98.00;;;;;;5054592;28;20465;-66
2022/05/19 00:32:53;;;;;;;2.63;1.60;;;17.20;98.00;;;;;;5049900;28;20496;-66
2022/05/19 00:35:21;;;;;;;1.93;1.40;;;17.10;98.00;;;;;;5054716;28;20469;-66
2022/05/19 00:37:48;;;;;;;1.53;1.47;;;17.10;98.00;;;;;;5054405;28;20806;-66
2022/05/19 00:40:18;;;;;;;2.30;1.50;;;17.10;98.00;;;;;;5054926;28;20462;-66
2022/05/19 00:42:45;;;;;;;1.77;1.50;;;17.00;98.00;;;;;;5054723;28;20967;-66
2022/05/19 00:45:14;;;;;;;1.83;1.60;;;17.00;98.00;;;;;;5054623;28;20856;-66
2022/05/19 00:47:47;;;;;;;2.70;1.93;;;17.00;98.00;;;;;;5048045;28;20505;-66
2022/05/19 00:50:23;;;;;;;1.50;1.40;;;16.90;98.00;;;;;;5054441;28;20461;-66
2022/05/19 00:52:54;;;;;;;2.13;1.63;;;16.70;98.00;;;;;;5054349;28;20836;-66
2022/05/19 00:55:26;;;;;;;1.77;1.50;;;16.50;98.00;;;;;;5054450;28;20476;-67
2022/05/19 00:57:58;;;;;;;3.03;2.00;;;16.50;98.00;;;;;;5054497;28;20483;-65
2022/05/19 01:00:27;;;;;;;2.03;1.47;;;16.60;98.00;;;;;;5054284;28;20465;-65
2022/05/19 01:02:57;;;;;;;3.80;1.50;;;16.70;98.00;;;;;;5054413;28;20453;-66
2022/05/19 01:05:31;;;;;;;1.70;1.67;;;16.80;98.00;;;;;;5054164;28;20458;-66
2022/05/19 01:08:03;;;;;;;2.60;1.73;;;16.70;98.00;;;;;;5054451;28;20465;-66
2022/05/19 01:10:30;;;;;;;2.60;1.80;;;16.70;98.00;;;;;;5054184;28;20462;-66
2022/05/19 01:12:58;;;;;;;3.33;1.50;;;16.70;98.00;;;;;;5053956;28;20485;-67
2022/05/19 01:15:25;;;;;;;1.77;1.60;;;16.70;98.00;;;;;;5053565;28;20446;-66
2022/05/19 01:17:53;;;;;;;2.47;1.73;;;16.60;98.00;;;;;;5053923;28;20529;-66
2022/05/19 01:20:22;;;;;;;4.93;1.90;;;16.60;98.00;;;;;;5053788;28;20454;-66
2022/05/19 01:22:57;;;;;;;3.10;1.90;;;16.50;98.00;;;;;;5053766;28;21078;-66
2022/05/19 01:25:38;;;;;;;4.03;2.00;;;16.50;98.00;;;;;;5053805;28;20500;-66
2022/05/19 01:28:07;;;;;;;2.67;1.70;;;16.40;98.00;;;;;;5053945;28;20464;-66
2022/05/19 01:30:34;;;;;;;2.23;1.67;;;16.30;98.00;;;;;;5053586;28;20504;-66
2022/05/19 01:33:01;;;;;;;2.43;1.80;;;16.50;98.00;;;;;;5053752;28;20516;-66
2022/05/19 01:35:33;;;;;;;2.57;1.70;;;16.50;98.00;;;;;;5053409;28;20461;-66
2022/05/19 01:38:01;;;;;;;2.20;1.57;;;16.50;98.00;;;;;;5053702;28;20457;-66
2022/05/19 01:40:46;;;;;;;2.70;1.63;;;16.50;98.00;;;;;;5045202;28;20557;-66
2022/05/19 01:43:24;;;;;;;2.53;1.70;;;16.50;98.00;;;;;;5053597;28;20879;-66
2022/05/19 01:46:11;;;;;;;1.70;1.40;;;16.50;98.00;;;;;;5053736;28;20454;-66
2022/05/19 01:48:47;;;;;;;1.70;1.70;;;16.50;98.00;;;;;;5047172;28;20458;-66
2022/05/19 01:51:21;;;;;;;1.73;1.63;;;16.50;98.00;;;;;;5053211;28;20460;-66
2022/05/19 01:53:54;;;;;;;1.90;1.40;;;16.60;98.00;;;;;;5053458;28;20485;-66
2022/05/19 01:56:27;;;;;;;1.70;1.40;;;16.60;98.00;;;;;;5053222;28;20461;-66
2022/05/19 01:59:06;;;;;;;2.00;1.73;;;16.60;98.00;;;;;;5053287;28;20493;-66
2022/05/19 02:01:33;;;;;;;2.00;1.50;;;16.60;98.00;;;;;;5053123;28;20461;-66
2022/05/19 02:04:07;;;;;;;1.77;1.60;;;16.40;98.00;;;;;;5053175;28;20449;-66
2022/05/19 02:06:38;;;;;;;1.73;1.47;;;16.20;98.00;;;;;;5053105;28;20848;-66
2022/05/19 02:09:08;;;;;;;2.77;1.50;;;16.10;98.00;;;;;;5053093;28;20454;-66
2022/05/19 02:11:42;;;;;;;2.10;1.70;;;16.10;98.00;;;;;;5053027;28;20457;-66
2022/05/19 02:14:15;;;;;;;2.00;1.90;;;16.00;98.00;;;;;;5052892;28;20482;-66
2022/05/19 02:16:44;;;;;;;2.23;1.70;;;16.00;98.00;;;;;;5053076;28;20454;-66
2022/05/19 02:19:15;;;;;;;1.90;1.60;;;15.80;98.00;;;;;;5052999;28;20511;-65
2022/05/19 02:21:42;;;;;;;2.50;1.90;;;15.90;98.00;;;;;;5052816;28;20465;-66
2022/05/19 02:24:13;;;;;;;2.27;1.43;;;16.00;98.00;;;;;;5052713;28;21004;-66
2022/05/19 02:26:40;;;;;;;2.23;1.50;;;16.00;98.00;;;;;;5052717;28;20465;-66
2022/05/19 02:29:14;;;;;;;2.90;1.80;;;16.00;98.00;;;;;;5052537;28;20454;-66
2022/05/19 02:31:43;;;;;;;1.50;1.40;;;16.00;98.00;;;;;;5052424;28;20853;-66
2022/05/19 02:34:10;;;;;;;2.40;1.77;;;16.00;98.00;;;;;;5049460;28;20482;-66
2022/05/19 02:36:37;;;;;;;1.90;1.60;;;15.90;98.00;;;;;;5052415;28;20457;-66
2022/05/19 02:39:07;;;;;;;2.63;1.83;;;15.60;98.00;;;;;;5052598;28;20838;-65
2022/05/19 02:41:34;;;;;;;1.57;1.53;;;15.40;98.00;;;;;;5052133;28;20464;-65
2022/05/19 02:44:02;;;;;;;3.47;1.80;;;15.30;98.00;;;;;;5052335;28;20450;-66
2022/05/19 02:46:30;;;;;;;1.50;1.50;;;15.30;98.00;;;;;;5052064;28;20460;-65
2022/05/19 02:49:01;;;;;;;2.67;2.10;;;15.20;98.00;;;;;;5051877;28;20461;-65
2022/05/19 02:51:30;;;;;;;1.60;1.40;;;15.20;98.00;;;;;;5051981;28;20963;-66
2022/05/19 02:53:57;;;;;;;3.03;2.50;;;15.10;98.00;;;;;;5052323;28;20485;-66
2022/05/19 02:56:24;;;;;;;2.47;1.63;;;15.20;98.00;;;;;;5052088;28;20456;-66
2022/05/19 02:58:52;;;;;;;3.03;1.40;;;15.10;98.00;;;;;;5052171;28;20965;-65
2022/05/19 03:01:20;;;;;;;3.20;1.93;;;15.10;98.00;;;;;;5050824;28;20465;-66
2022/05/19 03:03:49;;;;;;;2.80;1.93;;;15.20;98.00;;;;;;5052034;28;20520;-66
2022/05/19 03:06:16;;;;;;;2.33;1.90;;;15.10;98.00;;;;;;5052147;28;20548;-66
2022/05/19 03:08:43;;;;;;;1.80;1.57;;;15.10;98.00;;;;;;5052056;28;20456;-66
2022/05/19 03:11:11;;;;;;;1.57;1.50;;;15.00;98.00;;;;;;5051886;28;20461;-66
2022/05/19 03:13:38;;;;;;;2.97;1.73;;;14.90;98.00;;;;;;5052131;28;20485;-65
2022/05/19 03:16:08;;;;;;;2.37;1.80;;;14.90;98.00;;;;;;5051935;28;20471;-66
2022/05/19 03:18:35;;;;;;;1.80;1.60;;;15.10;98.00;;;;;;5052133;28;20453;-66
2022/05/19 03:21:04;;;;;;;1.40;1.23;;;14.90;98.00;;;;;;5048523;28;20473;-65
2022/05/19 03:23:31;;;;;;;1.80;1.40;;;14.80;98.00;;;;;;5052015;28;20453;-66
2022/05/19 03:25:58;;;;;;;3.50;1.83;;;14.60;98.00;;;;;;5051686;28;20457;-65
2022/05/19 03:28:28;;;;;;;18.27;1.90;;;14.70;98.00;;;;;;5051831;28;20448;-66
2022/05/19 03:30:55;;;;;;;2.23;1.37;;;14.70;98.00;;;;;;5052024;28;20807;-65
2022/05/19 03:33:22;;;;;;;2.80;1.87;;;14.80;98.00;;;;;;5051534;28;20495;-65
2022/05/19 03:35:57;;;;;;;1.77;1.63;;;14.80;98.00;;;;;;5051546;28;20471;-66
2022/05/19 03:38:26;;;;;;;5.10;1.60;;;14.80;98.00;;;;;;5051358;28;20962;-65
2022/05/19 03:40:53;;;;;;;2.53;1.60;;;14.80;98.00;;;;;;5051522;28;20450;-65
2022/05/19 03:43:20;;;;;;;3.00;1.87;;;14.70;98.00;;;;;;5051546;28;20468;-66
2022/05/19 03:45:51;;;;;;;1.93;1.60;;;14.50;98.00;;;;;;5045968;28;20462;-65
2022/05/19 03:48:18;;;;;;;2.37;1.63;;;14.50;98.00;;;;;;5051732;28;20479;-64
2022/05/19 03:50:45;;;;;;;1.90;1.73;;;14.40;98.00;;;;;;5051509;28;20513;-65
2022/05/19 03:53:14;;;;;;;1.50;1.50;;;14.50;98.00;;;;;;5051729;28;20492;-66
2022/05/19 03:55:44;;;;;;;1.40;1.30;;;14.30;98.00;;;;;;5045177;28;20459;-65
2022/05/19 03:58:11;;;;;;;1.60;1.33;;;14.40;98.00;;;;;;5051726;28;20483;-65
2022/05/19 04:00:38;;;;;;;3.10;2.03;;;14.60;98.00;;;;;;5044921;28;20463;-65
2022/05/19 04:03:05;;;;;;;2.70;1.70;;;14.80;98.00;;;;;;5051719;28;20458;-65
2022/05/19 04:05:32;;;;;;;1.53;1.53;;;14.80;98.00;;;;;;5051393;28;20455;-65
2022/05/19 04:07:59;;;;;;;1.73;1.60;;;14.90;98.00;;;;;;5047708;28;20943;-65
2022/05/19 04:10:27;;;;;;;5.80;2.30;;;15.00;98.00;;;;;;5051415;28;20560;-65
2022/05/19 04:12:56;;;;;;;2.30;1.43;;;14.90;98.00;;;;;;5053185;28;20465;-64
2022/05/19 04:15:23;;;;;;;3.40;1.70;;;14.90;98.00;;;;;;5055392;28;20518;-65
2022/05/19 04:17:50;;;;;;;21.27;3.00;;;14.80;98.00;;;;;;5055239;28;20464;-65
2022/05/19 04:20:17;;;;;;;2.60;1.73;;;14.70;98.00;;;;;;5055476;28;20456;-65
2022/05/19 04:22:45;;;;;;;1.67;1.50;;;14.60;98.00;;;;;;5055051;28;20469;-65
2022/05/19 04:25:15;;;;;;;1.50;1.50;;;14.60;98.00;;;;;;5054892;28;20530;-65
2022/05/19 04:27:42;;;;;;;3.50;1.87;;;14.50;98.00;;;;;;5055061;28;20515;-65
2022/05/19 04:30:14;;;;;;;2.47;1.63;;;14.40;98.00;;;;;;5054816;28;20482;-65
2022/05/19 04:32:42;;;;;;;1.77;1.50;;;14.50;98.00;;;;;;5054741;28;20456;-65
2022/05/19 04:35:10;;;;;;;2.13;1.60;;;14.60;98.00;;;;;;5054390;28;20503;-65
2022/05/19 04:37:37;;;;;;;2.47;2.13;;;14.50;98.00;;;;;;5054539;28;20463;-65
2022/05/19 04:40:05;;;;;;;3.80;2.23;;;14.70;98.00;;;;;;5054471;28;20959;-65
2022/05/19 04:42:33;;;;;;;2.20;1.90;;;14.50;98.00;;;;;;5054578;28;20505;-65
2022/05/19 04:45:00;;;;;;;1.83;1.80;;;14.50;98.00;;;;;;5054244;28;20468;-65
2022/05/19 04:47:28;;;;;;;1.77;1.60;;;14.50;98.00;;;;;;5054525;28;20459;-65
2022/05/19 04:49:55;;;;;;;1.50;1.40;;;14.50;98.00;;;;;;5054336;28;20456;-66
2022/05/19 04:52:23;;;;;;;1.70;1.50;;;14.70;98.00;;;;;;5054224;28;20501;-65
2022/05/19 04:54:50;;;;;;;6.23;2.30;;;14.80;98.00;;;;;;5054352;28;20496;-65
2022/05/19 04:57:18;;;;;;;3.00;2.10;;;14.70;98.00;;;;;;5054429;28;20457;-65
2022/05/19 04:59:45;;;;;;;2.87;1.83;;;14.70;98.00;;;;;;5054492;28;20610;-65
2022/05/19 05:02:13;;;;;;;1.70;1.67;;;14.70;98.00;;;;;;5054507;28;20801;-65
2022/05/19 05:04:42;;;;;;;1.80;1.50;;;14.70;98.00;;;;;;5054433;28;20469;-65
2022/05/19 05:07:09;;;;;;;2.47;2.23;;;14.70;98.00;;;;;;5053881;28;20472;-65
2022/05/19 05:09:36;;;;;;;5.30;1.50;;;14.90;98.00;;;;;;5054405;28;20456;-65
2022/05/19 05:12:04;;;;;;;1.40;1.20;;;15.00;98.00;;;;;;5054265;28;20844;-65
2022/05/19 05:14:32;;;;;;;2.30;1.73;;;15.00;98.00;;;;;;5054196;28;20925;-65
2022/05/19 05:16:59;;;;;;;2.93;1.90;;;15.00;98.00;;;;;;5054150;28;20460;-65
2022/05/19 05:19:26;;;;;;;1.87;1.50;;;15.10;98.00;;;;;;5054078;28;20519;-65
2022/05/19 05:21:57;;;;;;;2.00;1.70;;;15.20;98.00;;;;;;5049564;28;20464;-65
2022/05/19 05:24:24;;;;;;;2.60;2.00;;;15.40;98.00;;;;;;5052607;28;20457;-66
2022/05/19 05:26:52;;;;;;;2.63;1.93;;;15.40;98.00;;;;;;5054310;28;20551;-65
2022/05/19 05:29:20;;;;;;;2.27;1.97;;;15.40;98.00;;;;;;5044546;28;20464;-65
2022/05/19 05:31:48;;;;;;;2.27;1.60;;;15.60;98.00;;;;;;5053798;28;20939;-65
2022/05/19 05:34:16;;;;;;;2.47;2.10;;;15.80;98.00;;;;;;5053386;28;21205;-65
2022/05/19 05:36:43;;;;;;;2.17;1.90;;;15.90;98.00;;;;;;5053299;28;20454;-65
2022/05/19 05:39:11;;;;;;;3.40;2.10;;;16.10;98.00;;;;;;5053468;28;20453;-65
2022/05/19 05:41:38;;;;;;;2.10;1.97;;;16.30;98.00;;;;;;5053475;28;20472;-65
2022/05/19 05:44:06;;;;;;;2.37;1.80;;;16.50;98.00;;;;;;5053467;28;20468;-65
2022/05/19 05:46:33;;;;;;;3.30;2.23;;;16.50;98.00;;;;;;5053131;28;20970;-65
2022/05/19 05:49:00;;;;;;;1.80;1.80;;;16.60;98.00;;;;;;5053568;28;20941;-65
2022/05/19 05:51:27;;;;;;;3.37;2.23;;;16.60;98.00;;;;;;5053295;28;20507;-65
2022/05/19 05:53:54;;;;;;;3.73;1.80;;;16.50;98.00;;;;;;5053039;28;20538;-65
2022/05/19 05:56:23;;;;;;;3.70;2.50;;;16.60;98.00;;;;;;5053270;28;20966;-65
2022/05/19 05:58:52;;;;;;;1.57;1.50;;;16.70;98.00;;;;;;5053119;28;20460;-65
2022/05/19 06:01:20;;;;;;;2.07;1.70;;;16.80;98.00;;;;;;5053225;28;20466;-65
2022/05/19 06:03:48;;;;;;;1.80;1.70;;;16.90;98.00;;;;;;5053220;28;20827;-65
2022/05/19 06:08:57;;;;;;;2.37;1.60;;;17.20;98.00;;;;;;5048461;28;20462;-64
2022/05/19 06:11:25;;;;;;;2.20;1.90;;;17.40;98.00;;;;;;5044269;28;20460;-63
2022/05/19 06:13:53;;;;;;;2.10;1.83;;;17.50;98.00;;;;;;5053207;28;20489;-63
2022/05/19 06:16:20;;;;;;;3.50;2.10;;;17.60;98.00;;;;;;5053114;28;20450;-63
2022/05/19 06:18:47;;;;;;;4.50;1.77;;;17.70;98.00;;;;;;5052982;28;20520;-63
2022/05/19 06:21:14;;;;;;;2.20;1.70;;;17.90;98.00;;;;;;5053261;28;20485;-63
2022/05/19 06:23:42;;;;;;;2.00;1.80;;;18.10;98.00;;;;;;5053044;28;20860;-63
2022/05/19 06:26:09;;;;;;;3.17;1.93;;;18.20;98.00;;;;;;5052704;28;20458;-62
2022/05/19 06:28:37;;;;;;;2.90;1.80;;;18.30;98.00;;;;;;5052642;28;20801;-63
2022/05/19 06:31:05;;;;;;;2.00;1.73;;;18.40;98.00;;;;;;5052213;28;20523;-62
2022/05/19 06:33:35;;;;;;;2.90;2.17;;;18.40;98.00;;;;;;5044959;28;20458;-62
2022/05/19 06:36:05;;;;;;;3.10;1.90;;;18.60;98.00;;;;;;5051101;28;21016;-62
2022/05/19 06:38:33;;;;;;;3.07;1.80;;;18.70;98.00;;;;;;5052417;28;20465;-62
2022/05/19 06:43:42;;;;;;;3.20;2.10;;;19.00;98.00;;;;;;5050734;28;20453;-63
2022/05/19 06:46:11;;;;;;;2.03;1.63;;;19.10;98.00;;;;;;5051914;28;20519;-63
2022/05/19 06:48:38;;;;;;;2.27;2.17;;;19.20;98.00;;;;;;5051495;28;20512;-62
2022/05/19 06:51:05;;;;;;;4.37;2.90;;;19.30;98.00;;;;;;5051332;28;20450;-62
2022/05/19 06:53:32;;;;;;;2.97;2.00;;;19.30;98.00;;;;;;5051445;28;20457;-63
2022/05/19 06:56:00;;;;;;;2.40;1.83;;;19.40;98.00;;;;;;5051251;28;20482;-63
2022/05/19 06:58:27;;;;;;;2.73;2.13;;;19.50;98.00;;;;;;5051369;28;20458;-63
2022/05/19 07:00:55;;;;;;;2.23;2.07;;;19.60;98.00;;;;;;5051613;28;20966;-62
2022/05/19 07:03:22;;;;;;;2.60;1.93;;;19.70;98.00;;;;;;5052181;28;20844;-63
2022/05/19 07:05:49;;;;;;;2.70;2.00;;;19.80;97.70;;;;;;5052021;28;20461;-63
2022/05/19 07:08:17;;;;;;;2.90;2.13;;;19.90;97.00;;;;;;5051985;28;20457;-63
2022/05/19 07:10:44;;;;;;;1.97;1.73;;;20.00;97.00;;;;;;5045996;28;20498;-63
2022/05/19 07:13:11;;;;;;;4.10;2.50;;;20.30;98.00;;;;;;5039551;28;20513;-63
2022/05/19 07:15:38;;;;;;;4.60;2.40;;;20.40;97.20;;;;;;5028384;28;20520;-63
2022/05/19 07:18:09;;;;;;;3.83;2.20;;;20.50;96.90;;;;;;5028896;28;20820;-63
2022/05/19 07:20:44;;;;;;;2.47;2.10;;;20.60;96.40;;;;;;5029191;28;20473;-63
2022/05/19 07:23:14;;;;;;;2.40;2.03;;;20.70;94.80;;;;;;5011502;28;20465;-63
2022/05/19 07:25:42;;;;;;;2.80;2.10;;;20.80;95.20;;;;;;5012678;28;20689;-63
2022/05/19 07:28:10;;;;;;;4.17;2.30;;;20.90;95.20;;;;;;5012588;28;21005;-62
2022/05/19 07:30:38;;;;;;;2.87;2.20;;;21.00;97.00;;;;;;5011719;28;20922;-63
2022/05/19 07:33:08;;;;;;;2.53;2.03;;;21.30;96.20;;;;;;5016580;28;20468;-62
2022/05/19 07:35:35;;;;;;;4.20;2.67;;;21.50;94.50;;;;;;5050797;28;20486;-63
2022/05/19 07:38:05;;;;;;;4.50;2.20;;;21.60;94.80;;;;;;5051007;28;20460;-63
2022/05/19 07:40:32;;;;;;;2.50;1.90;;;21.70;95.90;;;;;;5051303;28;20983;-63
2022/05/19 07:43:35;;;;;;;3.30;2.50;;;21.80;93.50;;;;;;5037740;28;20450;-63
2022/05/19 07:45:47;;;;;;;3.13;2.73;;;21.80;92.80;;;;;;5025858;28;20451;-63
2022/05/19 07:48:15;;;;;;;2.30;2.10;;;21.90;93.40;;;;;;5033528;28;20462;-63
2022/05/19 07:50:42;;;;;;;2.53;1.87;;;22.00;92.70;;;;;;5035133;28;20454;-63
2022/05/19 07:53:11;;;;;;;3.60;2.53;;;22.10;94.30;;;;;;5035424;28;20454;-63
2022/05/19 07:55:38;;;;;;;2.57;2.10;;;22.20;93.30;;;;;;5035150;28;20494;-63
2022/05/19 07:58:05;;;;;;;5.60;2.10;;;22.40;93.10;;;;;;5035502;28;20450;-63
2022/05/19 08:00:32;;;;;;;3.07;2.07;;;22.60;94.70;;;;;;5035310;28;20501;-63
2022/05/19 08:02:59;;;;;;;4.50;2.47;;;22.80;94.70;;;;;;5035648;28;20454;-63
2022/05/19 08:05:28;;;;;;;4.70;2.47;;;22.90;93.40;;;;;;5035253;28;20462;-63
2022/05/19 08:07:55;;;;;;;3.97;2.77;;;23.10;92.70;;;;;;5035357;28;20458;-63
2022/05/19 08:10:24;;;;;;;4.30;2.53;;;23.20;92.90;;;;;;5034915;28;20936;-63
2022/05/19 08:15:37;;;;;;;4.17;2.40;;;23.50;92.50;;;;;;5035217;28;20543;-63
2022/05/19 08:18:08;;;;;;;4.87;3.03;;;23.70;93.20;;;;;;5035440;28;20457;-63
2022/05/19 08:20:39;;;;;;;4.80;2.57;;;23.90;93.50;;;;;;5035195;28;20516;-63
2022/05/19 08:23:07;;;;;;;3.93;2.60;;;24.10;91.90;;;;;;5035701;28;20549;-63
2022/05/19 08:25:35;;;;;;;3.60;2.30;;;24.20;91.40;;;;;;5028011;28;20899;-63
2022/05/19 08:28:02;;;;;;;4.83;2.40;;;24.20;89.20;;;;;;5035256;28;20458;-63
2022/05/19 08:30:29;;;;;;;3.07;2.87;;;24.30;89.50;;;;;;5034732;28;21111;-63
2022/05/19 08:33:00;;;;;;;4.23;2.40;;;24.40;89.40;;;;;;5034938;28;20531;-63
2022/05/19 08:35:27;;;;;;;3.80;2.47;;;24.40;89.50;;;;;;5034382;28;20489;-63
2022/05/19 08:37:58;;;;;;;2.73;2.27;;;24.40;89.40;;;;;;5034891;28;20816;-63
2022/05/19 08:40:25;;;;;;;4.10;2.50;;;24.40;87.70;;;;;;5034712;28;20956;-63
2022/05/19 08:42:58;;;;;;;2.67;2.20;;;24.30;87.70;;;;;;5030006;28;20470;-63
2022/05/19 08:45:31;;;;;;;4.40;2.30;;;24.40;89.80;;;;;;5034653;28;20482;-64
2022/05/19 08:48:03;;;;;;;2.80;2.40;;;24.60;90.60;;;;;;5034847;28;20463;-63
2022/05/19 08:50:38;;;;;;;5.20;3.13;;;24.70;89.50;;;;;;5034409;28;20461;-63
2022/05/19 08:53:10;;;;;;;4.20;2.60;;;24.90;88.80;;;;;;5031650;28;20453;-63
2022/05/19 08:55:38;;;;;;;4.40;2.63;;;25.00;89.80;;;;;;5034381;28;21412;-63
2022/05/19 08:58:15;;;;;;;5.47;2.37;;;25.10;87.20;;;;;;5034111;28;20466;-63
2022/05/19 09:00:48;;;;;;;4.00;2.40;;;25.30;87.20;;;;;;5034393;28;20824;-63
2022/05/19 09:03:20;;;;;;;2.77;2.10;;;25.30;87.20;;;;;;5034484;28;20454;-63
2022/05/19 09:06:06;;;;;;;5.23;3.23;;;25.50;86.90;;;;;;5034388;28;20451;-63
2022/05/19 09:08:49;;;;;;;5.17;2.37;;;25.70;85.70;;;;;;5034151;28;21068;-63
2022/05/19 09:11:19;;;;;;;6.63;2.60;;;25.90;88.40;;;;;;5033752;28;20470;-62
2022/05/19 09:13:53;;;;;;;4.20;2.37;;;26.20;88.90;;;;;;5039508;28;20462;-62
2022/05/19 09:16:23;;;;;;;5.83;2.20;;;26.30;86.00;;;;;;5053243;28;20528;-62
2022/05/19 09:18:57;;;;;;;3.30;2.10;;;26.40;85.00;;;;;;5053380;28;20545;-62
2022/05/19 09:21:26;;;;;;;3.17;2.30;;;26.30;84.20;;;;;;5028631;28;20468;-60
2022/05/19 09:23:54;;;;;;;2.90;2.10;;;26.40;84.20;;;;;;5053215;28;20453;-62
2022/05/19 09:26:40;;;;;;;3.60;2.50;;;26.50;83.40;;;;;;5053202;28;20972;-61
2022/05/19 09:29:12;;;;;;;2.53;2.00;;;26.50;83.30;;;;;;5013541;28;20455;-60
2022/05/19 09:31:42;;;;;;;2.63;2.00;;;26.60;83.40;;;;;;5013729;28;20463;-60
2022/05/19 09:34:10;;;;;;;3.00;2.53;;;26.80;84.70;;;;;;5013407;28;20475;-61
2022/05/19 09:36:41;;;;;;;3.20;2.37;;;27.00;84.70;;;;;;5013300;28;20573;-60
2022/05/19 09:39:15;;;;;;;3.67;2.40;;;27.10;82.50;;;;;;5013271;28;20534;-61
2022/05/19 09:41:46;;;;;;;3.40;2.33;;;27.20;81.90;;;;;;5033020;28;21005;-65
2022/05/19 09:44:17;;;;;;;3.97;2.57;;;27.40;83.00;;;;;;5029830;28;20525;-68
2022/05/19 09:46:47;;;;;;;3.60;2.70;;;27.50;81.80;;;;;;5030221;28;20465;-67
2022/05/19 09:49:27;;;;;;;3.28;2.30;;;27.50;83.90;;;;;;5028262;28;20464;-65
2022/05/19 09:51:59;;;;;;;4.10;2.67;;;27.70;82.60;;;;;;5028884;28;20204;-62
2022/05/19 09:54:30;;;;;;;3.20;2.50;;;27.90;82.20;;;;;;5030200;28;20459;-62
2022/05/19 09:57:04;;;;;;;3.87;2.50;;;28.00;80.30;;;;;;5037360;28;20903;-62
2022/05/19 09:59:37;;;;;;;5.30;2.40;;;28.00;81.10;;;;;;5031833;28;20862;-61
2022/05/19 10:02:12;;;;;;;3.50;2.50;;;28.00;81.20;;;;;;5032555;28;20455;-65
2022/05/19 10:04:42;;;;;;;3.20;2.23;;;28.10;82.10;;;;;;5032608;28;20450;-65
2022/05/19 10:07:24;;;;;;;4.20;2.90;;;28.30;82.50;;;;;;5032403;28;20944;-63
2022/05/19 10:09:54;;;;;;;5.90;3.07;;;28.40;79.80;;;;;;5031691;28;20505;-63
2022/05/19 10:12:25;;;;;;;3.20;2.60;;;28.50;80.80;;;;;;5024441;28;20478;-62
2022/05/19 10:15:00;;;;;;;3.50;2.40;;;28.50;80.20;;;;;;5032605;28;20471;-62
2022/05/19 10:17:36;;;;;;;3.70;2.33;;;28.60;80.10;;;;;;5032191;28;20486;-62
2022/05/19 10:20:11;;;;;;;5.37;2.70;;;28.70;79.90;;;;;;5032181;28;20454;-65
2022/05/19 10:22:58;;;;;;;4.73;2.60;;;28.70;81.50;;;;;;5032279;28;20461;-63
2022/05/19 10:25:57;;;;;;;4.57;2.87;;;28.90;80.90;;;;;;5032078;28;20949;-63
2022/05/19 10:31:38;;;;;;;3.07;2.53;;;29.20;79.60;;;;;;5032511;28;20554;-63
2022/05/19 10:34:29;;;;;;;3.50;2.50;;;29.20;77.80;;;;;;5031975;28;20489;-63
2022/05/19 10:37:06;;;;;;;3.33;2.60;;;29.20;81.30;;;;;;5031926;28;20841;-64
2022/05/19 10:40:01;;;;;;;2.60;2.30;;;29.30;82.20;;;;;;5032089;28;20461;-64
2022/05/19 10:42:38;;;;;;;4.40;2.70;;;29.40;83.40;;;;;;5031510;28;20461;-60
2022/05/19 10:45:21;;;;;;;5.27;3.00;;;29.60;79.90;;;;;;5031504;28;20863;-60
2022/05/19 10:48:10;;;;;;;5.30;2.90;;;29.70;80.70;;;;;;5031772;28;20521;-63
2022/05/19 10:50:39;;;;;;;3.90;2.50;;;29.80;80.30;;;;;;5024729;28;20466;-63
2022/05/19 10:53:27;;;;;;;4.67;2.87;;;29.90;79.00;;;;;;5031822;28;20465;-62
2022/05/19 10:56:08;;;;;;;6.20;3.00;;;30.10;78.40;;;;;;5031338;28;20479;-62
2022/05/19 10:59:06;;;;;;;4.63;2.93;;;30.10;79.80;;;;;;5031329;28;20968;-63
2022/05/19 11:01:42;;;;;;;3.20;2.53;;;30.20;78.30;;;;;;5031220;28;20986;-62
2022/05/19 11:04:47;;;;;;;3.83;2.50;;;30.20;78.00;;;;;;5031538;28;20613;-63
2022/05/19 11:07:37;;;;;;;6.07;2.70;;;30.10;76.40;;;;;;5031099;28;20507;-63
2022/05/19 11:10:15;;;;;;;4.50;2.63;;;30.10;78.30;;;;;;5031214;28;20462;-62
2022/05/19 11:12:50;;;;;;;7.00;2.80;;;30.30;78.10;;;;;;5030965;28;20850;-63
2022/05/19 11:15:25;;;;;;;4.60;2.73;;;30.40;79.00;;;;;;5031345;28;20888;-64
2022/05/19 11:18:02;;;;;;;4.40;2.97;;;30.60;78.90;;;;;;5031070;28;20461;-64
2022/05/19 11:20:33;;;;;;;5.83;3.13;;;30.70;77.90;;;;;;5023316;28;20458;-65
2022/05/19 11:23:06;;;;;;;3.77;2.67;;;30.90;77.20;;;;;;5031153;28;20486;-63
2022/05/19 11:28:33;;;;;;;4.30;3.00;;;31.00;74.20;;;;;;5031528;28;20973;-63
2022/05/19 11:31:11;;;;;;;3.90;2.73;;;30.90;75.00;;;;;;5031142;28;20462;-63
2022/05/19 11:33:41;;;;;;;4.10;2.93;;;31.00;75.50;;;;;;5031161;28;20469;-63
2022/05/19 11:36:16;;;;;;;5.40;2.70;;;31.10;75.90;;;;;;5028142;28;21012;-63
2022/05/19 11:38:51;;;;;;;4.47;3.10;;;31.20;74.90;;;;;;5031012;28;20548;-65
2022/05/19 11:41:22;;;;;;;7.70;2.60;;;31.40;75.70;;;;;;5029959;28;20939;-64
2022/05/19 11:43:55;;;;;;;2.63;2.37;;;31.70;78.30;;;;;;5030885;28;20458;-64
2022/05/19 11:46:27;;;;;;;2.60;2.40;;;31.90;73.40;;;;;;5030387;28;20467;-63
2022/05/19 11:57:32;;;;;;;7.30;3.80;;;32.70;75.20;;;;;;5023001;28;20525;-64
2022/05/19 12:00:02;;;;;;;4.37;2.80;;;32.70;73.90;;;;;;5030997;28;20877;-61
2022/05/19 12:02:37;;;;;;;5.30;3.20;;;32.90;74.00;;;;;;5030463;28;20455;-63
2022/05/19 12:05:10;;;;;;;6.20;3.60;;;33.00;75.10;;;;;;5031443;28;20450;-63
2022/05/19 12:07:45;;;;;;;5.10;3.00;;;33.00;73.70;;;;;;5030641;28;20454;-63
2022/05/19 12:10:17;;;;;;;4.57;2.83;;;33.10;74.40;;;;;;5030717;28;20477;-63
2022/05/19 12:12:50;;;;;;;3.40;2.60;;;33.10;73.40;;;;;;5030665;28;20462;-63
2022/05/19 12:15:21;;;;;;;4.20;2.90;;;33.20;73.20;;;;;;5030834;28;20573;-63
2022/05/19 12:17:57;;;;;;;5.10;3.17;;;33.30;72.50;;;;;;5030716;28;20960;-63
2022/05/19 12:20:49;;;;;;;3.37;2.80;;;33.40;73.00;;;;;;5031032;28;20494;-63
2022/05/19 12:23:26;;;;;;;4.27;3.10;;;33.50;71.20;;;;;;5030723;28;20545;-63
2022/05/19 12:25:56;;;;;;;3.90;2.90;;;33.60;72.40;;;;;;5031062;28;20458;-63
2022/05/19 12:28:47;;;;;;;3.70;2.77;;;33.70;72.00;;;;;;5031238;28;20459;-62
2022/05/19 12:34:09;;;;;;;3.77;2.90;;;33.30;73.50;;;;;;5032626;28;20457;-62
2022/05/19 12:36:45;;;;;;;3.97;2.93;;;33.30;71.70;;;;;;5033784;28;20493;-62
2022/05/19 12:39:29;;;;;;;4.73;3.30;;;33.50;71.50;;;;;;5034187;28;20828;-62
2022/05/19 12:41:59;;;;;;;5.50;3.40;;;33.70;73.80;;;;;;5033752;28;20540;-62
2022/05/19 12:44:46;;;;;;;4.03;2.83;;;33.60;70.60;;;;;;5029253;28;20864;-63
2022/05/19 12:47:20;;;;;;;3.87;2.83;;;33.30;72.50;;;;;;5053808;28;20453;-63
2022/05/19 12:50:27;;;;;;;12.83;2.80;;;33.00;73.60;;;;;;5053898;28;20458;-63
2022/05/19 12:53:04;;;;;;;8.30;2.93;;;33.10;72.70;;;;;;5047112;28;20465;-62
2022/05/19 12:55:46;;;;;;;4.97;3.03;;;33.30;72.00;;;;;;5053688;28;20476;-63
2022/05/19 12:58:50;;;;;;;3.70;2.77;;;33.00;70.50;;;;;;5050247;28;20877;-63
2022/05/19 13:01:26;;;;;;;4.00;2.70;;;32.90;74.30;;;;;;5054119;28;20795;-63
2022/05/19 13:04:02;;;;;;;3.83;2.60;;;32.90;76.10;;;;;;5053699;28;20453;-63
2022/05/19 13:06:31;;;;;;;5.80;3.07;;;33.20;74.90;;;;;;5053347;28;20888;-63
2022/05/19 13:09:04;;;;;;;4.90;3.47;;;33.30;73.60;;;;;;5052619;28;20467;-63
2022/05/19 13:11:34;;;;;;;4.93;3.53;;;33.60;72.10;;;;;;5053348;28;20453;-63
2022/05/19 13:14:06;;;;;;;3.83;2.83;;;33.80;70.00;;;;;;5044392;28;20564;-63
2022/05/19 13:16:38;;;;;;;3.37;2.83;;;33.80;72.90;;;;;;5039435;28;20573;-63
2022/05/19 13:19:08;;;;;;;4.33;3.07;;;33.80;74.30;;;;;;5053343;28;20508;-63
2022/05/19 13:21:40;;;;;;;4.10;2.77;;;34.20;72.10;;;;;;5052617;28;20445;-63
2022/05/19 13:24:15;;;;;;;4.80;3.10;;;34.40;70.50;;;;;;5048461;28;20447;-63
2022/05/19 13:26:44;;;;;;;3.87;2.70;;;34.50;72.30;;;;;;5026274;28;20450;-63
2022/05/19 13:32:02;;;;;;;3.70;3.00;;;34.60;73.30;;;;;;4999688;28;20548;-63
2022/05/19 13:34:29;;;;;;;4.80;3.20;;;34.90;69.00;;;;;;5033138;28;20910;-63
2022/05/19 13:36:59;;;;;;;3.57;2.83;;;35.20;67.50;;;;;;5032946;28;20482;-63